sensor_id;sensor_type;location;lat;lon;timestamp;temperature;humidity
25280;DHT22;13225;47.804;12.116;2023-12-29T00:01:45;6.90;99.90
25280;DHT22;13225;47.804;12.116;2023-12-29T00:04:11;6.90;99.90
25280;DHT22;13225;47.804;12.116;2023-12-29T00:06:40;6.80;99.90
25280;DHT22;13225;47.804;12.116;2023-12-29T00:09:06;6.90;99.90
25280;DHT22;13225;47.804;12.116;2023-12-29T00:11:32;6.80;99.90
25280;DHT22;13225;47.804;12.116;2023-12-29T00:13:58;6.80;99.90
25280;DHT22;13225;47.804;12.116;2023-12-29T00:16:24;6.70;99.90
25280;DHT22;13225;47.804;12.116;2023-12-29T00:18:49;6.70;99.90
25280;DHT22;13225;47.804;12.116;2023-12-29T00:21:15;6.60;99.90
25280;DHT22;13225;47.804;12.116;2023-12-29T00:23:40;6.60;99.90
25280;DHT22;13225;47.804;12.116;2023-12-29T00:26:06;6.50;99.90
25280;DHT22;13225;47.804;12.116;2023-12-29T00:28:32;6.50;99.90
25280;DHT22;13225;47.804;12.116;2023-12-29T00:30:57;6.40;99.90
25280;DHT22;13225;47.804;12.116;2023-12-29T00:33:23;6.30;99.90
25280;DHT22;13225;47.804;12.116;2023-12-29T00:35:49;6.20;99.90
25280;DHT22;13225;47.804;12.116;2023-12-29T00:38:14;6.20;99.90
25280;DHT22;13225;47.804;12.116;2023-12-29T00:40:40;6.20;99.90
25280;DHT22;13225;47.804;12.116;2023-12-29T00:43:05;6.10;99.90
25280;DHT22;13225;47.804;12.116;2023-12-29T00:45:31;6.20;99.90
25280;DHT22;13225;47.804;12.116;2023-12-29T00:48:01;6.20;99.90
25280;DHT22;13225;47.804;12.116;2023-12-29T00:50:27;6.10;99.90
25280;DHT22;13225;47.804;12.116;2023-12-29T00:52:53;6.00;99.90
25280;DHT22;13225;47.804;12.116;2023-12-29T00:55:19;6.00;99.90
25280;DHT22;13225;47.804;12.116;2023-12-29T00:57:44;6.00;99.90
25280;DHT22;13225;47.804;12.116;2023-12-29T01:00:12;5.90;99.90
25280;DHT22;13225;47.804;12.116;2023-12-29T01:02:41;5.90;99.90
25280;DHT22;13225;47.804;12.116;2023-12-29T01:05:07;5.90;99.90
25280;DHT22;13225;47.804;12.116;2023-12-29T01:07:32;5.90;99.90
25280;DHT22;13225;47.804;12.116;2023-12-29T01:09:58;5.90;99.90
25280;DHT22;13225;47.804;12.116;2023-12-29T01:12:24;5.90;99.90
25280;DHT22;13225;47.804;12.116;2023-12-29T01:14:50;5.80;99.90
25280;DHT22;13225;47.804;12.116;2023-12-29T01:17:15;5.80;99.90
25280;DHT22;13225;47.804;12.116;2023-12-29T01:19:41;5.70;99.90
25280;DHT22;13225;47.804;12.116;2023-12-29T01:22:07;5.60;99.90
25280;DHT22;13225;47.804;12.116;2023-12-29T01:24:32;5.60;99.90
25280;DHT22;13225;47.804;12.116;2023-12-29T01:26:58;5.50;99.90
25280;DHT22;13225;47.804;12.116;2023-12-29T01:29:23;5.50;99.90
25280;DHT22;13225;47.804;12.116;2023-12-29T01:31:49;5.40;99.90
25280;DHT22;13225;47.804;12.116;2023-12-29T01:34:14;5.40;99.90
25280;DHT22;13225;47.804;12.116;2023-12-29T01:36:40;5.40;99.90
25280;DHT22;13225;47.804;12.116;2023-12-29T01:39:06;5.30;99.90
25280;DHT22;13225;47.804;12.116;2023-12-29T01:41:31;5.20;99.90
25280;DHT22;13225;47.804;12.116;2023-12-29T01:46:28;5.20;99.90
25280;DHT22;13225;47.804;12.116;2023-12-29T01:48:54;5.20;99.90
25280;DHT22;13225;47.804;12.116;2023-12-29T01:51:22;5.30;99.90
25280;DHT22;13225;47.804;12.116;2023-12-29T01:53:49;5.30;99.90
25280;DHT22;13225;47.804;12.116;2023-12-29T01:56:15;5.30;99.90
25280;DHT22;13225;47.804;12.116;2023-12-29T01:58:40;5.30;99.90
25280;DHT22;13225;47.804;12.116;2023-12-29T02:01:07;5.20;99.90
25280;DHT22;13225;47.804;12.116;2023-12-29T02:03:34;5.20;99.90
25280;DHT22;13225;47.804;12.116;2023-12-29T02:05:59;5.30;99.90
25280;DHT22;13225;47.804;12.116;2023-12-29T02:08:25;5.20;99.90
25280;DHT22;13225;47.804;12.116;2023-12-29T02:10:51;5.30;99.90
25280;DHT22;13225;47.804;12.116;2023-12-29T02:13:17;5.20;99.90
25280;DHT22;13225;47.804;12.116;2023-12-29T02:15:42;5.20;99.90
25280;DHT22;13225;47.804;12.116;2023-12-29T02:18:14;5.30;99.90
25280;DHT22;13225;47.804;12.116;2023-12-29T02:20:41;5.40;99.90
25280;DHT22;13225;47.804;12.116;2023-12-29T02:23:07;5.40;99.90
25280;DHT22;13225;47.804;12.116;2023-12-29T02:25:34;5.40;99.90
25280;DHT22;13225;47.804;12.116;2023-12-29T02:28:07;5.50;99.90
25280;DHT22;13225;47.804;12.116;2023-12-29T02:31:36;5.50;99.90
25280;DHT22;13225;47.804;12.116;2023-12-29T02:33:43;5.60;99.90
25280;DHT22;13225;47.804;12.116;2023-12-29T02:36:10;5.60;99.90
25280;DHT22;13225;47.804;12.116;2023-12-29T02:38:38;5.70;99.90
25280;DHT22;13225;47.804;12.116;2023-12-29T02:41:04;5.60;99.90
25280;DHT22;13225;47.804;12.116;2023-12-29T02:43:33;5.80;99.90
25280;DHT22;13225;47.804;12.116;2023-12-29T02:45:59;5.80;99.90
25280;DHT22;13225;47.804;12.116;2023-12-29T02:48:25;5.80;99.90
25280;DHT22;13225;47.804;12.116;2023-12-29T02:50:50;6.00;99.90
25280;DHT22;13225;47.804;12.116;2023-12-29T02:53:16;6.00;99.90
25280;DHT22;13225;47.804;12.116;2023-12-29T02:55:42;6.00;99.90
25280;DHT22;13225;47.804;12.116;2023-12-29T02:58:09;6.10;99.90
25280;DHT22;13225;47.804;12.116;2023-12-29T03:00:34;6.20;99.90
25280;DHT22;13225;47.804;12.116;2023-12-29T03:03:00;6.20;99.90
25280;DHT22;13225;47.804;12.116;2023-12-29T03:05:25;6.20;99.90
25280;DHT22;13225;47.804;12.116;2023-12-29T03:07:51;6.20;99.90
25280;DHT22;13225;47.804;12.116;2023-12-29T03:10:17;6.20;99.90
25280;DHT22;13225;47.804;12.116;2023-12-29T03:12:42;6.40;99.90
25280;DHT22;13225;47.804;12.116;2023-12-29T03:15:08;6.40;99.90
25280;DHT22;13225;47.804;12.116;2023-12-29T03:17:34;6.50;99.90
25280;DHT22;13225;47.804;12.116;2023-12-29T03:20:00;6.60;99.90
25280;DHT22;13225;47.804;12.116;2023-12-29T03:22:26;6.60;99.90
25280;DHT22;13225;47.804;12.116;2023-12-29T03:24:51;6.70;99.90
25280;DHT22;13225;47.804;12.116;2023-12-29T03:27:17;6.80;99.90
25280;DHT22;13225;47.804;12.116;2023-12-29T03:29:42;6.80;99.90
25280;DHT22;13225;47.804;12.116;2023-12-29T03:32:08;6.80;99.90
25280;DHT22;13225;47.804;12.116;2023-12-29T03:34:33;6.80;99.90
25280;DHT22;13225;47.804;12.116;2023-12-29T03:36:59;6.80;99.90
25280;DHT22;13225;47.804;12.116;2023-12-29T03:39:25;6.70;99.90
25280;DHT22;13225;47.804;12.116;2023-12-29T03:41:50;6.70;99.90
25280;DHT22;13225;47.804;12.116;2023-12-29T03:44:16;6.70;99.90
25280;DHT22;13225;47.804;12.116;2023-12-29T03:46:43;6.70;99.90
25280;DHT22;13225;47.804;12.116;2023-12-29T03:49:08;6.70;99.90
25280;DHT22;13225;47.804;12.116;2023-12-29T03:51:34;6.70;99.90
25280;DHT22;13225;47.804;12.116;2023-12-29T03:54:00;6.70;99.90
25280;DHT22;13225;47.804;12.116;2023-12-29T03:56:26;6.60;99.90
25280;DHT22;13225;47.804;12.116;2023-12-29T03:58:52;6.60;99.90
25280;DHT22;13225;47.804;12.116;2023-12-29T04:01:17;6.70;99.90
25280;DHT22;13225;47.804;12.116;2023-12-29T04:03:43;6.60;99.90
25280;DHT22;13225;47.804;12.116;2023-12-29T04:06:09;6.60;99.90
25280;DHT22;13225;47.804;12.116;2023-12-29T04:08:35;6.60;99.90
25280;DHT22;13225;47.804;12.116;2023-12-29T04:11:02;6.60;99.90
25280;DHT22;13225;47.804;12.116;2023-12-29T04:13:28;6.50;99.90
25280;DHT22;13225;47.804;12.116;2023-12-29T04:15:54;6.50;99.90
25280;DHT22;13225;47.804;12.116;2023-12-29T04:18:21;6.50;99.90
25280;DHT22;13225;47.804;12.116;2023-12-29T04:20:46;6.40;99.90
25280;DHT22;13225;47.804;12.116;2023-12-29T04:23:12;6.50;99.90
25280;DHT22;13225;47.804;12.116;2023-12-29T04:25:38;6.40;99.90
25280;DHT22;13225;47.804;12.116;2023-12-29T04:28:03;6.50;99.90
25280;DHT22;13225;47.804;12.116;2023-12-29T04:30:29;6.50;99.90
25280;DHT22;13225;47.804;12.116;2023-12-29T04:32:55;6.50;99.90
25280;DHT22;13225;47.804;12.116;2023-12-29T04:35:21;6.60;99.90
25280;DHT22;13225;47.804;12.116;2023-12-29T04:37:47;6.60;99.90
25280;DHT22;13225;47.804;12.116;2023-12-29T04:40:12;6.60;99.90
25280;DHT22;13225;47.804;12.116;2023-12-29T04:42:38;6.60;99.90
25280;DHT22;13225;47.804;12.116;2023-12-29T04:45:04;6.60;99.90
25280;DHT22;13225;47.804;12.116;2023-12-29T04:47:30;6.60;99.90
25280;DHT22;13225;47.804;12.116;2023-12-29T04:49:56;6.50;99.90
25280;DHT22;13225;47.804;12.116;2023-12-29T04:52:22;6.50;99.90
25280;DHT22;13225;47.804;12.116;2023-12-29T04:54:48;6.40;99.90
25280;DHT22;13225;47.804;12.116;2023-12-29T04:57:13;6.30;99.90
25280;DHT22;13225;47.804;12.116;2023-12-29T04:59:39;6.20;99.90
25280;DHT22;13225;47.804;12.116;2023-12-29T05:02:05;6.20;99.90
25280;DHT22;13225;47.804;12.116;2023-12-29T05:04:30;6.20;99.90
25280;DHT22;13225;47.804;12.116;2023-12-29T05:06:56;6.10;99.90
25280;DHT22;13225;47.804;12.116;2023-12-29T05:09:21;6.10;99.90
25280;DHT22;13225;47.804;12.116;2023-12-29T05:11:47;6.10;99.90
25280;DHT22;13225;47.804;12.116;2023-12-29T05:14:13;6.20;99.90
25280;DHT22;13225;47.804;12.116;2023-12-29T05:16:41;6.10;99.90
25280;DHT22;13225;47.804;12.116;2023-12-29T05:19:07;6.20;99.90
25280;DHT22;13225;47.804;12.116;2023-12-29T05:21:32;6.10;99.90
25280;DHT22;13225;47.804;12.116;2023-12-29T05:23:58;6.00;99.90
25280;DHT22;13225;47.804;12.116;2023-12-29T05:26:23;6.00;99.90
25280;DHT22;13225;47.804;12.116;2023-12-29T05:28:49;6.00;99.90
25280;DHT22;13225;47.804;12.116;2023-12-29T05:31:14;6.00;99.90
25280;DHT22;13225;47.804;12.116;2023-12-29T05:33:40;6.30;99.90
25280;DHT22;13225;47.804;12.116;2023-12-29T05:36:07;6.00;99.90
25280;DHT22;13225;47.804;12.116;2023-12-29T05:38:33;6.00;99.90
25280;DHT22;13225;47.804;12.116;2023-12-29T05:40:59;6.00;99.90
25280;DHT22;13225;47.804;12.116;2023-12-29T05:43:27;6.00;99.90
25280;DHT22;13225;47.804;12.116;2023-12-29T05:45:53;6.00;99.90
25280;DHT22;13225;47.804;12.116;2023-12-29T05:48:18;6.00;99.90
25280;DHT22;13225;47.804;12.116;2023-12-29T05:50:44;5.90;99.90
25280;DHT22;13225;47.804;12.116;2023-12-29T05:53:09;5.90;99.90
25280;DHT22;13225;47.804;12.116;2023-12-29T05:55:35;5.90;99.90
25280;DHT22;13225;47.804;12.116;2023-12-29T05:58:01;5.90;99.90
25280;DHT22;13225;47.804;12.116;2023-12-29T06:00:27;5.90;99.90
25280;DHT22;13225;47.804;12.116;2023-12-29T06:02:53;5.90;99.90
25280;DHT22;13225;47.804;12.116;2023-12-29T06:05:18;5.90;99.90
25280;DHT22;13225;47.804;12.116;2023-12-29T06:07:44;5.80;99.90
25280;DHT22;13225;47.804;12.116;2023-12-29T06:10:11;5.80;99.90
25280;DHT22;13225;47.804;12.116;2023-12-29T06:12:37;5.80;99.90
25280;DHT22;13225;47.804;12.116;2023-12-29T06:15:03;5.70;99.90
25280;DHT22;13225;47.804;12.116;2023-12-29T06:17:29;5.70;99.90
25280;DHT22;13225;47.804;12.116;2023-12-29T06:19:54;5.70;99.90
25280;DHT22;13225;47.804;12.116;2023-12-29T06:22:20;5.80;99.90
25280;DHT22;13225;47.804;12.116;2023-12-29T06:24:45;5.80;99.90
25280;DHT22;13225;47.804;12.116;2023-12-29T06:27:12;5.80;99.90
25280;DHT22;13225;47.804;12.116;2023-12-29T06:29:38;5.80;99.90
25280;DHT22;13225;47.804;12.116;2023-12-29T06:32:04;5.90;99.90
25280;DHT22;13225;47.804;12.116;2023-12-29T06:34:30;6.00;99.90
25280;DHT22;13225;47.804;12.116;2023-12-29T06:36:55;6.00;99.90
25280;DHT22;13225;47.804;12.116;2023-12-29T06:39:21;6.00;99.90
25280;DHT22;13225;47.804;12.116;2023-12-29T06:41:46;6.10;99.90
25280;DHT22;13225;47.804;12.116;2023-12-29T06:44:12;6.10;99.90
25280;DHT22;13225;47.804;12.116;2023-12-29T06:46:38;6.10;99.90
25280;DHT22;13225;47.804;12.116;2023-12-29T06:49:04;6.00;99.90
25280;DHT22;13225;47.804;12.116;2023-12-29T06:51:30;6.00;99.90
25280;DHT22;13225;47.804;12.116;2023-12-29T06:53:55;6.00;99.90
25280;DHT22;13225;47.804;12.116;2023-12-29T06:56:21;6.10;99.90
25280;DHT22;13225;47.804;12.116;2023-12-29T06:58:46;6.00;99.90
25280;DHT22;13225;47.804;12.116;2023-12-29T07:01:13;6.00;99.90
25280;DHT22;13225;47.804;12.116;2023-12-29T07:03:38;6.00;99.90
25280;DHT22;13225;47.804;12.116;2023-12-29T07:06:04;6.00;99.90
25280;DHT22;13225;47.804;12.116;2023-12-29T07:08:30;6.00;99.90
25280;DHT22;13225;47.804;12.116;2023-12-29T07:10:56;6.00;99.90
25280;DHT22;13225;47.804;12.116;2023-12-29T07:13:21;6.00;99.90
25280;DHT22;13225;47.804;12.116;2023-12-29T07:15:47;6.00;99.90
25280;DHT22;13225;47.804;12.116;2023-12-29T07:18:14;6.10;99.90
25280;DHT22;13225;47.804;12.116;2023-12-29T07:20:40;6.20;99.90
25280;DHT22;13225;47.804;12.116;2023-12-29T07:23:05;6.20;99.90
25280;DHT22;13225;47.804;12.116;2023-12-29T07:25:31;6.30;99.90
25280;DHT22;13225;47.804;12.116;2023-12-29T07:27:57;6.30;99.90
25280;DHT22;13225;47.804;12.116;2023-12-29T07:30:22;6.20;99.90
25280;DHT22;13225;47.804;12.116;2023-12-29T07:32:48;6.20;99.90
25280;DHT22;13225;47.804;12.116;2023-12-29T07:35:13;6.20;99.90
25280;DHT22;13225;47.804;12.116;2023-12-29T07:37:43;6.20;99.90
25280;DHT22;13225;47.804;12.116;2023-12-29T07:40:13;6.20;99.90
25280;DHT22;13225;47.804;12.116;2023-12-29T07:42:41;6.20;99.90
25280;DHT22;13225;47.804;12.116;2023-12-29T07:45:09;6.20;99.90
25280;DHT22;13225;47.804;12.116;2023-12-29T07:47:35;6.30;99.90
25280;DHT22;13225;47.804;12.116;2023-12-29T07:50:01;6.20;99.90
25280;DHT22;13225;47.804;12.116;2023-12-29T07:52:27;6.30;99.90
25280;DHT22;13225;47.804;12.116;2023-12-29T07:54:52;6.40;99.90
25280;DHT22;13225;47.804;12.116;2023-12-29T07:57:18;6.40;99.90
25280;DHT22;13225;47.804;12.116;2023-12-29T07:59:43;6.50;99.90
25280;DHT22;13225;47.804;12.116;2023-12-29T08:02:09;6.50;99.90
25280;DHT22;13225;47.804;12.116;2023-12-29T08:04:35;6.40;99.90
25280;DHT22;13225;47.804;12.116;2023-12-29T08:07:01;6.40;99.90
25280;DHT22;13225;47.804;12.116;2023-12-29T08:09:26;6.40;99.90
25280;DHT22;13225;47.804;12.116;2023-12-29T08:11:52;6.50;99.90
25280;DHT22;13225;47.804;12.116;2023-12-29T08:14:18;6.50;99.90
25280;DHT22;13225;47.804;12.116;2023-12-29T08:16:44;6.60;99.90
25280;DHT22;13225;47.804;12.116;2023-12-29T08:19:10;6.70;99.90
25280;DHT22;13225;47.804;12.116;2023-12-29T08:21:36;6.70;99.90
25280;DHT22;13225;47.804;12.116;2023-12-29T08:24:02;6.70;99.90
25280;DHT22;13225;47.804;12.116;2023-12-29T08:26:28;6.80;99.90
25280;DHT22;13225;47.804;12.116;2023-12-29T08:28:54;6.80;99.90
25280;DHT22;13225;47.804;12.116;2023-12-29T08:31:20;6.80;99.90
25280;DHT22;13225;47.804;12.116;2023-12-29T08:33:47;6.70;99.90
25280;DHT22;13225;47.804;12.116;2023-12-29T08:36:13;6.70;99.90
25280;DHT22;13225;47.804;12.116;2023-12-29T08:38:39;6.70;99.90
25280;DHT22;13225;47.804;12.116;2023-12-29T08:41:05;6.70;99.90
25280;DHT22;13225;47.804;12.116;2023-12-29T08:43:30;6.80;99.90
25280;DHT22;13225;47.804;12.116;2023-12-29T08:45:56;6.80;99.90
25280;DHT22;13225;47.804;12.116;2023-12-29T08:48:22;6.80;99.90
25280;DHT22;13225;47.804;12.116;2023-12-29T08:50:49;6.70;99.90
25280;DHT22;13225;47.804;12.116;2023-12-29T08:53:15;6.80;99.90
25280;DHT22;13225;47.804;12.116;2023-12-29T08:55:44;6.80;99.90
25280;DHT22;13225;47.804;12.116;2023-12-29T08:58:10;6.80;99.90
25280;DHT22;13225;47.804;12.116;2023-12-29T09:00:36;6.90;99.90
25280;DHT22;13225;47.804;12.116;2023-12-29T09:03:01;7.00;99.90
25280;DHT22;13225;47.804;12.116;2023-12-29T09:05:28;7.00;99.90
25280;DHT22;13225;47.804;12.116;2023-12-29T09:07:53;6.90;99.90
25280;DHT22;13225;47.804;12.116;2023-12-29T09:10:19;6.90;99.90
25280;DHT22;13225;47.804;12.116;2023-12-29T09:12:46;6.80;99.90
25280;DHT22;13225;47.804;12.116;2023-12-29T09:15:12;6.80;99.90
25280;DHT22;13225;47.804;12.116;2023-12-29T09:17:37;6.90;99.90
25280;DHT22;13225;47.804;12.116;2023-12-29T09:20:03;6.90;99.90
25280;DHT22;13225;47.804;12.116;2023-12-29T09:22:29;7.00;99.90
25280;DHT22;13225;47.804;12.116;2023-12-29T09:24:55;7.00;99.90
25280;DHT22;13225;47.804;12.116;2023-12-29T09:27:21;7.10;99.90
25280;DHT22;13225;47.804;12.116;2023-12-29T09:29:47;7.10;99.90
25280;DHT22;13225;47.804;12.116;2023-12-29T09:34:38;7.30;99.90
25280;DHT22;13225;47.804;12.116;2023-12-29T09:37:04;7.40;99.90
25280;DHT22;13225;47.804;12.116;2023-12-29T09:39:29;7.50;99.90
25280;DHT22;13225;47.804;12.116;2023-12-29T09:41:58;7.50;99.90
25280;DHT22;13225;47.804;12.116;2023-12-29T09:44:27;7.50;99.90
25280;DHT22;13225;47.804;12.116;2023-12-29T09:46:54;7.50;99.90
25280;DHT22;13225;47.804;12.116;2023-12-29T09:49:22;7.60;99.90
25280;DHT22;13225;47.804;12.116;2023-12-29T09:51:49;7.70;99.90
25280;DHT22;13225;47.804;12.116;2023-12-29T09:54:15;7.80;99.90
25280;DHT22;13225;47.804;12.116;2023-12-29T09:56:41;7.90;99.90
25280;DHT22;13225;47.804;12.116;2023-12-29T09:59:09;8.00;99.90
25280;DHT22;13225;47.804;12.116;2023-12-29T10:01:37;8.10;99.90
25280;DHT22;13225;47.804;12.116;2023-12-29T10:04:03;8.10;99.90
25280;DHT22;13225;47.804;12.116;2023-12-29T10:06:32;8.20;99.90
25280;DHT22;13225;47.804;12.116;2023-12-29T10:09:02;8.20;99.90
25280;DHT22;13225;47.804;12.116;2023-12-29T10:11:31;8.20;99.90
25280;DHT22;13225;47.804;12.116;2023-12-29T10:14:03;8.40;99.90
25280;DHT22;13225;47.804;12.116;2023-12-29T10:16:38;8.50;99.90
25280;DHT22;13225;47.804;12.116;2023-12-29T10:22:15;8.90;99.90
25280;DHT22;13225;47.804;12.116;2023-12-29T10:24:44;9.10;99.90
25280;DHT22;13225;47.804;12.116;2023-12-29T10:27:12;9.10;99.90
25280;DHT22;13225;47.804;12.116;2023-12-29T10:29:38;9.20;99.90
25280;DHT22;13225;47.804;12.116;2023-12-29T10:32:04;9.20;99.90
25280;DHT22;13225;47.804;12.116;2023-12-29T10:34:29;9.40;99.90
25280;DHT22;13225;47.804;12.116;2023-12-29T10:36:57;9.50;99.90
25280;DHT22;13225;47.804;12.116;2023-12-29T10:39:23;9.50;99.90
25280;DHT22;13225;47.804;12.116;2023-12-29T10:41:50;9.40;99.90
25280;DHT22;13225;47.804;12.116;2023-12-29T10:44:16;9.60;99.90
25280;DHT22;13225;47.804;12.116;2023-12-29T10:46:42;9.90;99.90
25280;DHT22;13225;47.804;12.116;2023-12-29T10:49:11;10.00;99.90
25280;DHT22;13225;47.804;12.116;2023-12-29T10:51:38;10.10;99.90
25280;DHT22;13225;47.804;12.116;2023-12-29T10:54:05;10.00;99.90
25280;DHT22;13225;47.804;12.116;2023-12-29T10:56:31;10.10;99.90
25280;DHT22;13225;47.804;12.116;2023-12-29T10:59:05;10.10;99.90
25280;DHT22;13225;47.804;12.116;2023-12-29T11:01:35;10.10;99.90
25280;DHT22;13225;47.804;12.116;2023-12-29T11:04:05;10.10;99.90
25280;DHT22;13225;47.804;12.116;2023-12-29T11:06:51;10.40;99.90
25280;DHT22;13225;47.804;12.116;2023-12-29T11:09:29;10.60;99.90
25280;DHT22;13225;47.804;12.116;2023-12-29T11:12:03;10.40;99.90
25280;DHT22;13225;47.804;12.116;2023-12-29T11:14:29;10.60;99.90
25280;DHT22;13225;47.804;12.116;2023-12-29T11:16:57;10.70;99.90
25280;DHT22;13225;47.804;12.116;2023-12-29T11:19:24;10.80;99.90
25280;DHT22;13225;47.804;12.116;2023-12-29T11:21:52;11.00;99.90
25280;DHT22;13225;47.804;12.116;2023-12-29T11:24:20;11.20;99.90
25280;DHT22;13225;47.804;12.116;2023-12-29T11:26:46;11.10;99.90
25280;DHT22;13225;47.804;12.116;2023-12-29T11:29:15;11.20;99.90
25280;DHT22;13225;47.804;12.116;2023-12-29T11:31:41;11.20;99.90
25280;DHT22;13225;47.804;12.116;2023-12-29T11:34:16;11.20;99.90
25280;DHT22;13225;47.804;12.116;2023-12-29T11:36:46;11.30;99.90
25280;DHT22;13225;47.804;12.116;2023-12-29T11:39:21;11.60;99.90
25280;DHT22;13225;47.804;12.116;2023-12-29T11:44:27;11.80;99.90
25280;DHT22;13225;47.804;12.116;2023-12-29T11:46:53;11.60;99.90
25280;DHT22;13225;47.804;12.116;2023-12-29T11:49:20;11.50;99.90
25280;DHT22;13225;47.804;12.116;2023-12-29T11:51:49;11.30;99.90
25280;DHT22;13225;47.804;12.116;2023-12-29T11:54:32;11.30;99.90
25280;DHT22;13225;47.804;12.116;2023-12-29T11:56:58;11.40;99.90
25280;DHT22;13225;47.804;12.116;2023-12-29T11:59:25;11.50;99.90
25280;DHT22;13225;47.804;12.116;2023-12-29T12:01:53;11.60;99.90
25280;DHT22;13225;47.804;12.116;2023-12-29T12:04:42;11.70;99.90
25280;DHT22;13225;47.804;12.116;2023-12-29T12:12:45;11.80;99.90
25280;DHT22;13225;47.804;12.116;2023-12-29T12:18:04;12.00;99.90
25280;DHT22;13225;47.804;12.116;2023-12-29T12:20:32;12.10;99.90
25280;DHT22;13225;47.804;12.116;2023-12-29T12:23:02;12.20;99.90
25280;DHT22;13225;47.804;12.116;2023-12-29T12:25:30;12.40;99.90
25280;DHT22;13225;47.804;12.116;2023-12-29T12:27:57;12.60;99.90
25280;DHT22;13225;47.804;12.116;2023-12-29T12:30:23;12.80;99.90
25280;DHT22;13225;47.804;12.116;2023-12-29T12:32:59;12.90;99.90
25280;DHT22;13225;47.804;12.116;2023-12-29T12:35:25;12.90;99.90
25280;DHT22;13225;47.804;12.116;2023-12-29T12:38:16;12.90;99.90
25280;DHT22;13225;47.804;12.116;2023-12-29T12:40:46;12.70;99.90
25280;DHT22;13225;47.804;12.116;2023-12-29T12:43:16;12.60;99.90
25280;DHT22;13225;47.804;12.116;2023-12-29T12:45:52;12.40;99.90
25280;DHT22;13225;47.804;12.116;2023-12-29T12:48:39;12.30;99.90
25280;DHT22;13225;47.804;12.116;2023-12-29T12:51:06;12.40;99.90
25280;DHT22;13225;47.804;12.116;2023-12-29T12:53:32;12.40;99.90
25280;DHT22;13225;47.804;12.116;2023-12-29T12:55:58;12.30;99.90
25280;DHT22;13225;47.804;12.116;2023-12-29T12:58:24;12.00;99.90
25280;DHT22;13225;47.804;12.116;2023-12-29T13:00:51;12.00;99.90
25280;DHT22;13225;47.804;12.116;2023-12-29T13:03:17;12.00;99.90
25280;DHT22;13225;47.804;12.116;2023-12-29T13:05:43;11.80;99.90
25280;DHT22;13225;47.804;12.116;2023-12-29T13:08:09;11.50;99.90
25280;DHT22;13225;47.804;12.116;2023-12-29T13:10:41;11.30;99.90
25280;DHT22;13225;47.804;12.116;2023-12-29T13:13:07;11.40;99.90
25280;DHT22;13225;47.804;12.116;2023-12-29T13:15:33;11.50;99.90
25280;DHT22;13225;47.804;12.116;2023-12-29T13:17:59;11.30;99.90
25280;DHT22;13225;47.804;12.116;2023-12-29T13:20:24;11.10;99.90
25280;DHT22;13225;47.804;12.116;2023-12-29T13:22:50;11.00;99.90
25280;DHT22;13225;47.804;12.116;2023-12-29T13:25:20;11.10;99.90
25280;DHT22;13225;47.804;12.116;2023-12-29T13:27:47;11.10;99.90
25280;DHT22;13225;47.804;12.116;2023-12-29T13:30:13;11.10;99.90
25280;DHT22;13225;47.804;12.116;2023-12-29T13:32:40;10.90;99.90
25280;DHT22;13225;47.804;12.116;2023-12-29T13:35:24;10.80;99.90
25280;DHT22;13225;47.804;12.116;2023-12-29T13:40:26;10.50;99.90
25280;DHT22;13225;47.804;12.116;2023-12-29T13:42:57;10.60;99.90
25280;DHT22;13225;47.804;12.116;2023-12-29T13:45:23;10.50;99.90
25280;DHT22;13225;47.804;12.116;2023-12-29T13:47:49;10.60;99.90
25280;DHT22;13225;47.804;12.116;2023-12-29T13:50:16;10.60;99.90
25280;DHT22;13225;47.804;12.116;2023-12-29T13:52:42;10.40;99.90
25280;DHT22;13225;47.804;12.116;2023-12-29T13:55:08;10.30;99.90
25280;DHT22;13225;47.804;12.116;2023-12-29T13:57:34;10.10;99.90
25280;DHT22;13225;47.804;12.116;2023-12-29T14:02:44;10.00;99.90
25280;DHT22;13225;47.804;12.116;2023-12-29T14:05:24;9.90;99.90
25280;DHT22;13225;47.804;12.116;2023-12-29T14:08:19;9.90;99.90
25280;DHT22;13225;47.804;12.116;2023-12-29T14:10:48;9.80;99.90
25280;DHT22;13225;47.804;12.116;2023-12-29T14:13:16;9.70;99.90
25280;DHT22;13225;47.804;12.116;2023-12-29T14:15:43;9.70;99.90
25280;DHT22;13225;47.804;12.116;2023-12-29T14:19:08;9.60;99.90
25280;DHT22;13225;47.804;12.116;2023-12-29T14:21:32;9.60;99.90
25280;DHT22;13225;47.804;12.116;2023-12-29T14:24:05;9.50;99.90
25280;DHT22;13225;47.804;12.116;2023-12-29T14:26:31;9.50;99.90
25280;DHT22;13225;47.804;12.116;2023-12-29T14:31:35;9.50;99.90
25280;DHT22;13225;47.804;12.116;2023-12-29T14:34:02;9.50;99.90
25280;DHT22;13225;47.804;12.116;2023-12-29T14:36:29;9.50;99.90
25280;DHT22;13225;47.804;12.116;2023-12-29T14:38:54;9.50;99.90
25280;DHT22;13225;47.804;12.116;2023-12-29T14:41:20;9.50;99.90
25280;DHT22;13225;47.804;12.116;2023-12-29T14:43:45;9.50;99.90
25280;DHT22;13225;47.804;12.116;2023-12-29T14:46:11;9.40;99.90
25280;DHT22;13225;47.804;12.116;2023-12-29T14:48:37;9.40;99.90
25280;DHT22;13225;47.804;12.116;2023-12-29T14:51:04;9.20;99.90
25280;DHT22;13225;47.804;12.116;2023-12-29T14:53:30;9.20;99.90
25280;DHT22;13225;47.804;12.116;2023-12-29T14:55:56;9.10;99.90
25280;DHT22;13225;47.804;12.116;2023-12-29T14:58:22;9.10;99.90
25280;DHT22;13225;47.804;12.116;2023-12-29T15:00:47;9.00;99.90
25280;DHT22;13225;47.804;12.116;2023-12-29T15:03:13;9.10;99.90
25280;DHT22;13225;47.804;12.116;2023-12-29T15:05:41;8.90;99.90
25280;DHT22;13225;47.804;12.116;2023-12-29T15:08:08;8.80;99.90
25280;DHT22;13225;47.804;12.116;2023-12-29T15:10:34;8.80;99.90
25280;DHT22;13225;47.804;12.116;2023-12-29T15:13:01;8.70;99.90
25280;DHT22;13225;47.804;12.116;2023-12-29T15:15:26;8.60;99.90
25280;DHT22;13225;47.804;12.116;2023-12-29T15:17:52;8.50;99.90
25280;DHT22;13225;47.804;12.116;2023-12-29T15:20:18;8.50;99.90
25280;DHT22;13225;47.804;12.116;2023-12-29T15:22:43;8.50;99.90
25280;DHT22;13225;47.804;12.116;2023-12-29T15:25:09;8.50;99.90
25280;DHT22;13225;47.804;12.116;2023-12-29T15:27:35;8.40;99.90
25280;DHT22;13225;47.804;12.116;2023-12-29T15:30:00;8.40;99.90
25280;DHT22;13225;47.804;12.116;2023-12-29T15:32:26;8.20;99.90
25280;DHT22;13225;47.804;12.116;2023-12-29T15:34:51;8.10;99.90
25280;DHT22;13225;47.804;12.116;2023-12-29T15:37:17;8.00;99.90
25280;DHT22;13225;47.804;12.116;2023-12-29T15:39:44;8.00;99.90
25280;DHT22;13225;47.804;12.116;2023-12-29T15:42:10;7.90;99.90
25280;DHT22;13225;47.804;12.116;2023-12-29T15:44:36;7.80;99.90
25280;DHT22;13225;47.804;12.116;2023-12-29T15:47:01;7.80;99.90
25280;DHT22;13225;47.804;12.116;2023-12-29T15:51:53;7.80;99.90
25280;DHT22;13225;47.804;12.116;2023-12-29T15:54:18;7.80;99.90
25280;DHT22;13225;47.804;12.116;2023-12-29T15:56:44;7.70;99.90